עמוד ראשי
METAR-TAF:

METAR-TAF

שדות תעופה :

Skelton Airport

Eureka, אלסקה, ארצות הברית

קו רוחב: 61-56N, קו אורך: 147-10W, גובה: 1002מטר

תצפית מזג אוויר נוכחית

הדו"ח נערך לפני 23דקות, בשעה 10:56 UTC
רוח 10קשר מכיוון דרום-מערב
טמפרטורת 4 צלסיוס
לחות 93%
לחץ 1016 hPa
ראות: 16.1קילומטר
שמיים נקיים

METAR: PAZK 191056Z AUTO 23010KT 10SM CLR 04/03 A3001 RMK AO2 SLP182 T00440028 $

זמן: 03:19 (11:19 UTC)


TAF: חסר

תצפיות ותחזיות מזג אוויר לגבי יותר מ- 4,000 שדות תעופה ברחבי העולם. דוחות METAR ו- TAF.

התחנות הזמינות מסומנות בנקודות צהובות ואדומות על גבי המפה.

העבר את העכבר לנקודה הצבעונית על מנת לראות את שם התחנה.

לאחר מכן, לחץ כדי לראות את תוכן ואת תחזיות מזג האוויר.

כדי לשנות את המפה: לחץ על הכפתורים הירוקים עם הפלוס השחור כדי להתקרב; על הכפתור הירוק עם המקף כדי להתרחק; או בחיצים הירוקים למפות סמוכות.


METAR-TAF: